sensor_id;sensor_type;location;lat;lon;timestamp;P1;durP1;ratioP1;P2;durP2;ratioP2
63818;SDS011;49970;54.976;73.248;2024-03-17T00:02:09;97.78;;;48.97;;
63818;SDS011;49970;54.976;73.248;2024-03-17T00:04:35;108.35;;;50.58;;
63818;SDS011;49970;54.976;73.248;2024-03-17T00:07:02;114.00;;;49.15;;
63818;SDS011;49970;54.976;73.248;2024-03-17T00:09:29;108.10;;;50.50;;
63818;SDS011;49970;54.976;73.248;2024-03-17T00:11:55;97.15;;;47.92;;
63818;SDS011;49970;54.976;73.248;2024-03-17T00:14:22;113.28;;;51.58;;
63818;SDS011;49970;54.976;73.248;2024-03-17T00:16:48;102.88;;;50.35;;
63818;SDS011;49970;54.976;73.248;2024-03-17T00:19:14;110.60;;;48.90;;
63818;SDS011;49970;54.976;73.248;2024-03-17T00:21:43;120.07;;;57.38;;
63818;SDS011;49970;54.976;73.248;2024-03-17T00:24:09;249.93;;;141.25;;
63818;SDS011;49970;54.976;73.248;2024-03-17T00:26:36;319.92;;;186.63;;
63818;SDS011;49970;54.976;73.248;2024-03-17T00:29:02;259.00;;;156.50;;
63818;SDS011;49970;54.976;73.248;2024-03-17T00:31:29;174.18;;;99.82;;
63818;SDS011;49970;54.976;73.248;2024-03-17T00:33:55;114.10;;;56.88;;
63818;SDS011;49970;54.976;73.248;2024-03-17T00:36:21;101.63;;;46.92;;
63818;SDS011;49970;54.976;73.248;2024-03-17T00:38:47;93.80;;;44.70;;
63818;SDS011;49970;54.976;73.248;2024-03-17T00:41:14;90.80;;;44.50;;
63818;SDS011;49970;54.976;73.248;2024-03-17T00:43:42;94.95;;;41.78;;
63818;SDS011;49970;54.976;73.248;2024-03-17T00:46:09;82.60;;;43.78;;
63818;SDS011;49970;54.976;73.248;2024-03-17T00:48:35;88.03;;;40.47;;
63818;SDS011;49970;54.976;73.248;2024-03-17T00:51:01;78.63;;;38.08;;
63818;SDS011;49970;54.976;73.248;2024-03-17T00:53:28;83.30;;;37.10;;
63818;SDS011;49970;54.976;73.248;2024-03-17T00:55:55;81.95;;;34.20;;
63818;SDS011;49970;54.976;73.248;2024-03-17T00:58:25;69.03;;;34.03;;
63818;SDS011;49970;54.976;73.248;2024-03-17T01:00:52;76.57;;;36.80;;
63818;SDS011;49970;54.976;73.248;2024-03-17T01:03:18;78.10;;;36.78;;
63818;SDS011;49970;54.976;73.248;2024-03-17T01:05:45;82.25;;;38.95;;
63818;SDS011;49970;54.976;73.248;2024-03-17T01:08:13;72.55;;;36.17;;
63818;SDS011;49970;54.976;73.248;2024-03-17T01:10:40;75.35;;;37.13;;
63818;SDS011;49970;54.976;73.248;2024-03-17T01:13:07;85.35;;;38.95;;
63818;SDS011;49970;54.976;73.248;2024-03-17T01:15:35;82.22;;;38.25;;
63818;SDS011;49970;54.976;73.248;2024-03-17T01:18:03;81.05;;;38.63;;
63818;SDS011;49970;54.976;73.248;2024-03-17T01:20:30;83.00;;;39.58;;
63818;SDS011;49970;54.976;73.248;2024-03-17T01:22:58;76.22;;;36.47;;
63818;SDS011;49970;54.976;73.248;2024-03-17T01:25:25;83.75;;;35.95;;
63818;SDS011;49970;54.976;73.248;2024-03-17T01:27:52;78.57;;;35.97;;
63818;SDS011;49970;54.976;73.248;2024-03-17T01:30:19;86.15;;;37.63;;
63818;SDS011;49970;54.976;73.248;2024-03-17T01:32:48;85.00;;;40.83;;
63818;SDS011;49970;54.976;73.248;2024-03-17T01:35:17;90.32;;;41.45;;
63818;SDS011;49970;54.976;73.248;2024-03-17T01:37:44;81.88;;;39.33;;
63818;SDS011;49970;54.976;73.248;2024-03-17T01:40:10;72.85;;;36.83;;
63818;SDS011;49970;54.976;73.248;2024-03-17T01:42:37;78.47;;;38.65;;
63818;SDS011;49970;54.976;73.248;2024-03-17T01:47:43;93.47;;;39.25;;
63818;SDS011;49970;54.976;73.248;2024-03-17T01:50:10;82.78;;;40.70;;
63818;SDS011;49970;54.976;73.248;2024-03-17T01:52:39;82.80;;;38.53;;
63818;SDS011;49970;54.976;73.248;2024-03-17T01:55:05;85.85;;;35.83;;
63818;SDS011;49970;54.976;73.248;2024-03-17T01:57:32;82.65;;;37.70;;
63818;SDS011;49970;54.976;73.248;2024-03-17T01:59:59;77.18;;;32.15;;
63818;SDS011;49970;54.976;73.248;2024-03-17T02:02:26;67.80;;;36.15;;
63818;SDS011;49970;54.976;73.248;2024-03-17T02:04:52;75.13;;;33.15;;
63818;SDS011;49970;54.976;73.248;2024-03-17T02:07:19;70.18;;;34.05;;
63818;SDS011;49970;54.976;73.248;2024-03-17T02:09:45;67.82;;;34.08;;
63818;SDS011;49970;54.976;73.248;2024-03-17T02:12:12;72.22;;;34.28;;
63818;SDS011;49970;54.976;73.248;2024-03-17T02:14:38;68.38;;;35.60;;
63818;SDS011;49970;54.976;73.248;2024-03-17T02:17:04;69.43;;;33.05;;
63818;SDS011;49970;54.976;73.248;2024-03-17T02:19:31;63.53;;;31.58;;
63818;SDS011;49970;54.976;73.248;2024-03-17T02:21:57;69.72;;;30.85;;
63818;SDS011;49970;54.976;73.248;2024-03-17T02:24:23;58.95;;;29.35;;
63818;SDS011;49970;54.976;73.248;2024-03-17T02:26:50;54.45;;;28.42;;
63818;SDS011;49970;54.976;73.248;2024-03-17T02:29:16;57.22;;;27.67;;
63818;SDS011;49970;54.976;73.248;2024-03-17T02:31:42;52.20;;;26.02;;
63818;SDS011;49970;54.976;73.248;2024-03-17T02:34:08;58.60;;;25.30;;
63818;SDS011;49970;54.976;73.248;2024-03-17T02:36:35;50.42;;;22.83;;
63818;SDS011;49970;54.976;73.248;2024-03-17T02:39:02;43.95;;;22.40;;
63818;SDS011;49970;54.976;73.248;2024-03-17T02:41:47;48.28;;;23.80;;
63818;SDS011;49970;54.976;73.248;2024-03-17T02:44:13;46.15;;;22.83;;
63818;SDS011;49970;54.976;73.248;2024-03-17T02:46:40;55.63;;;23.25;;
63818;SDS011;49970;54.976;73.248;2024-03-17T02:49:06;52.58;;;24.25;;
63818;SDS011;49970;54.976;73.248;2024-03-17T02:51:34;50.65;;;22.67;;
63818;SDS011;49970;54.976;73.248;2024-03-17T02:54:00;50.40;;;22.38;;
63818;SDS011;49970;54.976;73.248;2024-03-17T02:56:27;44.53;;;20.80;;
63818;SDS011;49970;54.976;73.248;2024-03-17T02:58:53;41.72;;;21.25;;
63818;SDS011;49970;54.976;73.248;2024-03-17T03:01:20;46.95;;;21.85;;
63818;SDS011;49970;54.976;73.248;2024-03-17T03:03:46;43.55;;;21.10;;
63818;SDS011;49970;54.976;73.248;2024-03-17T03:06:14;36.78;;;20.65;;
63818;SDS011;49970;54.976;73.248;2024-03-17T03:08:45;50.05;;;26.17;;
63818;SDS011;49970;54.976;73.248;2024-03-17T03:11:16;50.55;;;29.60;;
63818;SDS011;49970;54.976;73.248;2024-03-17T03:13:43;48.42;;;26.90;;
63818;SDS011;49970;54.976;73.248;2024-03-17T03:16:10;72.15;;;34.90;;
63818;SDS011;49970;54.976;73.248;2024-03-17T03:18:38;55.35;;;31.23;;
63818;SDS011;49970;54.976;73.248;2024-03-17T03:21:05;80.85;;;39.55;;
63818;SDS011;49970;54.976;73.248;2024-03-17T03:23:32;62.47;;;34.05;;
63818;SDS011;49970;54.976;73.248;2024-03-17T03:25:59;66.07;;;31.65;;
63818;SDS011;49970;54.976;73.248;2024-03-17T03:28:29;50.67;;;25.52;;
63818;SDS011;49970;54.976;73.248;2024-03-17T03:31:02;39.50;;;19.58;;
63818;SDS011;49970;54.976;73.248;2024-03-17T03:33:28;39.50;;;18.65;;
63818;SDS011;49970;54.976;73.248;2024-03-17T03:35:55;36.38;;;17.77;;
63818;SDS011;49970;54.976;73.248;2024-03-17T03:38:21;39.17;;;15.18;;
63818;SDS011;49970;54.976;73.248;2024-03-17T03:41:52;27.65;;;16.02;;
63818;SDS011;49970;54.976;73.248;2024-03-17T03:44:20;37.17;;;15.98;;
63818;SDS011;49970;54.976;73.248;2024-03-17T03:46:47;27.50;;;15.90;;
63818;SDS011;49970;54.976;73.248;2024-03-17T03:50:18;39.75;;;15.25;;
63818;SDS011;49970;54.976;73.248;2024-03-17T03:52:47;33.67;;;15.23;;
63818;SDS011;49970;54.976;73.248;2024-03-17T03:55:15;30.85;;;15.90;;
63818;SDS011;49970;54.976;73.248;2024-03-17T03:57:43;31.05;;;14.75;;
63818;SDS011;49970;54.976;73.248;2024-03-17T04:00:14;32.97;;;17.27;;
63818;SDS011;49970;54.976;73.248;2024-03-17T04:05:15;35.92;;;16.67;;
63818;SDS011;49970;54.976;73.248;2024-03-17T04:07:41;37.22;;;17.10;;
63818;SDS011;49970;54.976;73.248;2024-03-17T04:10:09;32.03;;;16.05;;
63818;SDS011;49970;54.976;73.248;2024-03-17T04:12:35;32.63;;;16.27;;
63818;SDS011;49970;54.976;73.248;2024-03-17T04:15:02;43.78;;;17.83;;
63818;SDS011;49970;54.976;73.248;2024-03-17T04:17:28;22.70;;;14.93;;
63818;SDS011;49970;54.976;73.248;2024-03-17T04:19:59;33.25;;;17.20;;
63818;SDS011;49970;54.976;73.248;2024-03-17T04:22:25;33.92;;;15.60;;
63818;SDS011;49970;54.976;73.248;2024-03-17T04:28:48;32.83;;;15.10;;
63818;SDS011;49970;54.976;73.248;2024-03-17T04:31:14;39.20;;;14.82;;
63818;SDS011;49970;54.976;73.248;2024-03-17T04:33:41;27.60;;;14.13;;
63818;SDS011;49970;54.976;73.248;2024-03-17T04:36:07;30.38;;;14.63;;
63818;SDS011;49970;54.976;73.248;2024-03-17T04:38:34;31.77;;;15.18;;
63818;SDS011;49970;54.976;73.248;2024-03-17T04:41:00;29.60;;;14.30;;
63818;SDS011;49970;54.976;73.248;2024-03-17T04:43:30;35.88;;;13.63;;
63818;SDS011;49970;54.976;73.248;2024-03-17T04:46:04;29.55;;;15.32;;
63818;SDS011;49970;54.976;73.248;2024-03-17T04:49:42;30.98;;;15.38;;
63818;SDS011;49970;54.976;73.248;2024-03-17T04:52:10;42.03;;;15.40;;
63818;SDS011;49970;54.976;73.248;2024-03-17T04:54:37;36.47;;;15.55;;
63818;SDS011;49970;54.976;73.248;2024-03-17T04:57:04;31.95;;;15.63;;
63818;SDS011;49970;54.976;73.248;2024-03-17T04:59:33;38.42;;;15.35;;
63818;SDS011;49970;54.976;73.248;2024-03-17T05:02:00;31.38;;;15.65;;
63818;SDS011;49970;54.976;73.248;2024-03-17T05:04:28;27.10;;;14.38;;
63818;SDS011;49970;54.976;73.248;2024-03-17T05:06:56;24.13;;;13.52;;
63818;SDS011;49970;54.976;73.248;2024-03-17T05:09:22;29.65;;;14.32;;
63818;SDS011;49970;54.976;73.248;2024-03-17T05:11:50;27.42;;;14.23;;
63818;SDS011;49970;54.976;73.248;2024-03-17T05:14:19;29.45;;;15.15;;
63818;SDS011;49970;54.976;73.248;2024-03-17T05:16:49;33.10;;;13.35;;
63818;SDS011;49970;54.976;73.248;2024-03-17T05:19:16;27.55;;;13.25;;
63818;SDS011;49970;54.976;73.248;2024-03-17T05:21:46;23.08;;;13.65;;
63818;SDS011;49970;54.976;73.248;2024-03-17T05:24:12;26.42;;;13.13;;
63818;SDS011;49970;54.976;73.248;2024-03-17T05:26:39;33.47;;;13.63;;
63818;SDS011;49970;54.976;73.248;2024-03-17T05:29:05;30.88;;;14.23;;
63818;SDS011;49970;54.976;73.248;2024-03-17T05:31:31;32.35;;;14.35;;
63818;SDS011;49970;54.976;73.248;2024-03-17T05:33:58;26.33;;;14.07;;
63818;SDS011;49970;54.976;73.248;2024-03-17T05:36:24;21.40;;;12.57;;
63818;SDS011;49970;54.976;73.248;2024-03-17T05:38:50;29.08;;;14.25;;
63818;SDS011;49970;54.976;73.248;2024-03-17T05:41:17;26.60;;;13.70;;
63818;SDS011;49970;54.976;73.248;2024-03-17T05:43:43;25.08;;;12.32;;
63818;SDS011;49970;54.976;73.248;2024-03-17T05:46:10;29.25;;;13.80;;
63818;SDS011;49970;54.976;73.248;2024-03-17T05:48:39;25.38;;;14.85;;
63818;SDS011;49970;54.976;73.248;2024-03-17T05:51:06;26.52;;;14.50;;
63818;SDS011;49970;54.976;73.248;2024-03-17T05:53:34;25.63;;;13.35;;
63818;SDS011;49970;54.976;73.248;2024-03-17T05:56:02;25.80;;;12.48;;
63818;SDS011;49970;54.976;73.248;2024-03-17T05:58:29;27.33;;;11.98;;
63818;SDS011;49970;54.976;73.248;2024-03-17T06:00:56;20.55;;;11.63;;
63818;SDS011;49970;54.976;73.248;2024-03-17T06:03:23;23.40;;;11.82;;
63818;SDS011;49970;54.976;73.248;2024-03-17T06:05:50;26.00;;;12.65;;
63818;SDS011;49970;54.976;73.248;2024-03-17T06:08:16;24.08;;;11.95;;
63818;SDS011;49970;54.976;73.248;2024-03-17T06:10:47;22.15;;;12.07;;
63818;SDS011;49970;54.976;73.248;2024-03-17T06:13:14;24.17;;;12.43;;
63818;SDS011;49970;54.976;73.248;2024-03-17T06:16:46;25.60;;;12.55;;
63818;SDS011;49970;54.976;73.248;2024-03-17T06:19:14;22.48;;;12.90;;
63818;SDS011;49970;54.976;73.248;2024-03-17T06:21:41;21.33;;;12.32;;
63818;SDS011;49970;54.976;73.248;2024-03-17T06:24:07;24.45;;;13.25;;
63818;SDS011;49970;54.976;73.248;2024-03-17T06:26:34;26.50;;;12.50;;
63818;SDS011;49970;54.976;73.248;2024-03-17T06:29:01;21.75;;;13.48;;
63818;SDS011;49970;54.976;73.248;2024-03-17T06:31:27;20.63;;;12.20;;
63818;SDS011;49970;54.976;73.248;2024-03-17T06:33:54;23.02;;;11.55;;
63818;SDS011;49970;54.976;73.248;2024-03-17T06:36:34;26.60;;;11.98;;
63818;SDS011;49970;54.976;73.248;2024-03-17T06:39:00;20.42;;;13.05;;
63818;SDS011;49970;54.976;73.248;2024-03-17T06:41:27;16.20;;;11.77;;
63818;SDS011;49970;54.976;73.248;2024-03-17T06:43:53;21.83;;;13.00;;
63818;SDS011;49970;54.976;73.248;2024-03-17T06:46:19;24.65;;;13.05;;
63818;SDS011;49970;54.976;73.248;2024-03-17T06:48:46;21.55;;;12.60;;
63818;SDS011;49970;54.976;73.248;2024-03-17T06:51:12;20.05;;;12.48;;
63818;SDS011;49970;54.976;73.248;2024-03-17T06:53:38;28.08;;;13.52;;
63818;SDS011;49970;54.976;73.248;2024-03-17T06:56:05;26.58;;;12.68;;
63818;SDS011;49970;54.976;73.248;2024-03-17T06:58:31;31.75;;;13.07;;
63818;SDS011;49970;54.976;73.248;2024-03-17T07:00:58;23.77;;;12.50;;
63818;SDS011;49970;54.976;73.248;2024-03-17T07:03:27;25.55;;;14.15;;
63818;SDS011;49970;54.976;73.248;2024-03-17T07:05:58;23.02;;;13.10;;
63818;SDS011;49970;54.976;73.248;2024-03-17T07:08:28;27.20;;;12.50;;
63818;SDS011;49970;54.976;73.248;2024-03-17T07:11:02;21.95;;;12.88;;
63818;SDS011;49970;54.976;73.248;2024-03-17T07:13:34;26.58;;;13.73;;
63818;SDS011;49970;54.976;73.248;2024-03-17T07:16:19;30.65;;;13.60;;
63818;SDS011;49970;54.976;73.248;2024-03-17T07:18:47;25.90;;;13.95;;
63818;SDS011;49970;54.976;73.248;2024-03-17T07:21:15;34.17;;;14.05;;
63818;SDS011;49970;54.976;73.248;2024-03-17T07:23:42;31.63;;;14.82;;
63818;SDS011;49970;54.976;73.248;2024-03-17T07:26:08;35.00;;;15.10;;
63818;SDS011;49970;54.976;73.248;2024-03-17T07:28:35;38.58;;;15.60;;
63818;SDS011;49970;54.976;73.248;2024-03-17T07:31:06;30.00;;;15.07;;
63818;SDS011;49970;54.976;73.248;2024-03-17T07:33:35;45.85;;;14.38;;
63818;SDS011;49970;54.976;73.248;2024-03-17T07:36:01;32.00;;;13.80;;
63818;SDS011;49970;54.976;73.248;2024-03-17T07:38:29;40.15;;;15.68;;
63818;SDS011;49970;54.976;73.248;2024-03-17T07:40:57;23.13;;;12.55;;
63818;SDS011;49970;54.976;73.248;2024-03-17T07:43:25;22.05;;;11.93;;
63818;SDS011;49970;54.976;73.248;2024-03-17T07:46:09;35.85;;;14.10;;
63818;SDS011;49970;54.976;73.248;2024-03-17T07:48:40;26.73;;;13.07;;
63818;SDS011;49970;54.976;73.248;2024-03-17T07:51:11;27.73;;;13.18;;
63818;SDS011;49970;54.976;73.248;2024-03-17T07:53:40;24.13;;;13.43;;
63818;SDS011;49970;54.976;73.248;2024-03-17T07:56:07;26.45;;;12.25;;
63818;SDS011;49970;54.976;73.248;2024-03-17T07:58:39;31.75;;;11.55;;
63818;SDS011;49970;54.976;73.248;2024-03-17T08:01:07;20.27;;;10.40;;
63818;SDS011;49970;54.976;73.248;2024-03-17T08:03:39;21.23;;;10.70;;
63818;SDS011;49970;54.976;73.248;2024-03-17T08:06:19;24.95;;;10.25;;
63818;SDS011;49970;54.976;73.248;2024-03-17T08:08:46;18.35;;;10.30;;
63818;SDS011;49970;54.976;73.248;2024-03-17T08:11:13;17.25;;;10.07;;
63818;SDS011;49970;54.976;73.248;2024-03-17T08:13:39;18.60;;;9.82;;
63818;SDS011;49970;54.976;73.248;2024-03-17T08:16:08;15.10;;;8.50;;
63818;SDS011;49970;54.976;73.248;2024-03-17T08:18:34;17.13;;;7.95;;
63818;SDS011;49970;54.976;73.248;2024-03-17T08:21:01;17.10;;;8.60;;
63818;SDS011;49970;54.976;73.248;2024-03-17T08:23:32;20.98;;;8.02;;
63818;SDS011;49970;54.976;73.248;2024-03-17T08:26:01;14.23;;;8.25;;
63818;SDS011;49970;54.976;73.248;2024-03-17T08:28:28;15.52;;;8.15;;
63818;SDS011;49970;54.976;73.248;2024-03-17T08:30:55;18.98;;;8.38;;
63818;SDS011;49970;54.976;73.248;2024-03-17T08:33:24;18.13;;;8.13;;
63818;SDS011;49970;54.976;73.248;2024-03-17T08:35:58;15.10;;;7.78;;
63818;SDS011;49970;54.976;73.248;2024-03-17T08:40:51;14.02;;;7.50;;
63818;SDS011;49970;54.976;73.248;2024-03-17T08:43:19;16.23;;;8.18;;
63818;SDS011;49970;54.976;73.248;2024-03-17T08:47:14;15.13;;;6.90;;
63818;SDS011;49970;54.976;73.248;2024-03-17T08:51:10;13.73;;;7.53;;
63818;SDS011;49970;54.976;73.248;2024-03-17T08:54:15;14.60;;;8.10;;
63818;SDS011;49970;54.976;73.248;2024-03-17T08:56:42;7.57;;;6.82;;
63818;SDS011;49970;54.976;73.248;2024-03-17T08:59:16;17.85;;;6.80;;
63818;SDS011;49970;54.976;73.248;2024-03-17T09:01:48;8.98;;;6.72;;
63818;SDS011;49970;54.976;73.248;2024-03-17T09:04:20;15.07;;;6.68;;
63818;SDS011;49970;54.976;73.248;2024-03-17T09:06:49;10.00;;;6.03;;
63818;SDS011;49970;54.976;73.248;2024-03-17T09:09:24;10.10;;;6.22;;
63818;SDS011;49970;54.976;73.248;2024-03-17T09:11:55;10.27;;;5.13;;
63818;SDS011;49970;54.976;73.248;2024-03-17T09:14:26;12.88;;;7.00;;
63818;SDS011;49970;54.976;73.248;2024-03-17T09:16:57;14.00;;;5.97;;
63818;SDS011;49970;54.976;73.248;2024-03-17T09:19:27;13.57;;;8.60;;
63818;SDS011;49970;54.976;73.248;2024-03-17T09:22:58;9.35;;;6.85;;
63818;SDS011;49970;54.976;73.248;2024-03-17T09:25:25;9.98;;;6.65;;
63818;SDS011;49970;54.976;73.248;2024-03-17T09:27:51;10.75;;;5.70;;
63818;SDS011;49970;54.976;73.248;2024-03-17T09:30:17;9.93;;;6.10;;
63818;SDS011;49970;54.976;73.248;2024-03-17T09:32:44;8.13;;;4.47;;
63818;SDS011;49970;54.976;73.248;2024-03-17T09:35:10;8.10;;;5.18;;
63818;SDS011;49970;54.976;73.248;2024-03-17T09:37:36;5.97;;;4.55;;
63818;SDS011;49970;54.976;73.248;2024-03-17T09:40:03;10.18;;;4.72;;
63818;SDS011;49970;54.976;73.248;2024-03-17T09:42:31;10.57;;;5.13;;
63818;SDS011;49970;54.976;73.248;2024-03-17T09:45:01;8.85;;;4.47;;
63818;SDS011;49970;54.976;73.248;2024-03-17T09:47:27;5.75;;;4.90;;
63818;SDS011;49970;54.976;73.248;2024-03-17T09:49:54;13.85;;;5.28;;
63818;SDS011;49970;54.976;73.248;2024-03-17T09:52:24;7.47;;;4.68;;
63818;SDS011;49970;54.976;73.248;2024-03-17T09:55:12;9.25;;;4.63;;
63818;SDS011;49970;54.976;73.248;2024-03-17T09:57:43;8.35;;;4.97;;
63818;SDS011;49970;54.976;73.248;2024-03-17T10:00:11;17.35;;;4.38;;
63818;SDS011;49970;54.976;73.248;2024-03-17T10:02:43;15.27;;;4.57;;
63818;SDS011;49970;54.976;73.248;2024-03-17T10:05:20;9.18;;;4.88;;
63818;SDS011;49970;54.976;73.248;2024-03-17T10:07:48;10.43;;;4.47;;
63818;SDS011;49970;54.976;73.248;2024-03-17T10:10:16;16.42;;;4.80;;
63818;SDS011;49970;54.976;73.248;2024-03-17T10:12:43;6.07;;;4.90;;
63818;SDS011;49970;54.976;73.248;2024-03-17T10:15:15;11.60;;;5.50;;
63818;SDS011;49970;54.976;73.248;2024-03-17T10:17:41;13.07;;;5.13;;
63818;SDS011;49970;54.976;73.248;2024-03-17T10:20:19;6.40;;;5.00;;
63818;SDS011;49970;54.976;73.248;2024-03-17T10:23:01;8.65;;;5.00;;
63818;SDS011;49970;54.976;73.248;2024-03-17T10:25:34;14.15;;;5.93;;
63818;SDS011;49970;54.976;73.248;2024-03-17T10:28:09;14.90;;;6.10;;
63818;SDS011;49970;54.976;73.248;2024-03-17T10:31:38;19.33;;;6.78;;
63818;SDS011;49970;54.976;73.248;2024-03-17T10:34:05;8.65;;;6.20;;
63818;SDS011;49970;54.976;73.248;2024-03-17T10:36:42;7.70;;;5.47;;
63818;SDS011;49970;54.976;73.248;2024-03-17T10:39:29;12.18;;;6.45;;
63818;SDS011;49970;54.976;73.248;2024-03-17T10:41:59;14.27;;;5.60;;
63818;SDS011;49970;54.976;73.248;2024-03-17T10:44:28;11.65;;;5.13;;
63818;SDS011;49970;54.976;73.248;2024-03-17T10:46:55;14.02;;;5.13;;
63818;SDS011;49970;54.976;73.248;2024-03-17T10:49:28;12.02;;;5.43;;
63818;SDS011;49970;54.976;73.248;2024-03-17T10:52:02;18.15;;;5.00;;
63818;SDS011;49970;54.976;73.248;2024-03-17T10:54:31;8.68;;;5.30;;
63818;SDS011;49970;54.976;73.248;2024-03-17T11:00:03;13.13;;;5.60;;
63818;SDS011;49970;54.976;73.248;2024-03-17T11:02:31;6.70;;;5.53;;
63818;SDS011;49970;54.976;73.248;2024-03-17T11:05:05;16.02;;;5.88;;
63818;SDS011;49970;54.976;73.248;2024-03-17T11:07:39;16.35;;;6.53;;
63818;SDS011;49970;54.976;73.248;2024-03-17T11:10:15;10.82;;;5.88;;
63818;SDS011;49970;54.976;73.248;2024-03-17T11:17:47;11.80;;;6.13;;
63818;SDS011;49970;54.976;73.248;2024-03-17T11:20:21;10.82;;;7.32;;
63818;SDS011;49970;54.976;73.248;2024-03-17T11:22:55;12.82;;;6.70;;
63818;SDS011;49970;54.976;73.248;2024-03-17T11:27:58;17.48;;;7.10;;
63818;SDS011;49970;54.976;73.248;2024-03-17T11:38:58;16.25;;;6.18;;
63818;SDS011;49970;54.976;73.248;2024-03-17T11:44:16;13.65;;;6.28;;
63818;SDS011;49970;54.976;73.248;2024-03-17T11:52:00;20.40;;;6.68;;
63818;SDS011;49970;54.976;73.248;2024-03-17T11:54:33;12.75;;;6.53;;
63818;SDS011;49970;54.976;73.248;2024-03-17T11:57:02;10.75;;;5.85;;
63818;SDS011;49970;54.976;73.248;2024-03-17T11:59:39;14.20;;;6.30;;
63818;SDS011;49970;54.976;73.248;2024-03-17T12:02:22;9.75;;;6.35;;
63818;SDS011;49970;54.976;73.248;2024-03-17T12:04:57;12.15;;;6.18;;
63818;SDS011;49970;54.976;73.248;2024-03-17T12:07:24;16.58;;;7.60;;
63818;SDS011;49970;54.976;73.248;2024-03-17T12:10:04;14.90;;;6.60;;
63818;SDS011;49970;54.976;73.248;2024-03-17T12:12:37;17.92;;;6.95;;
63818;SDS011;49970;54.976;73.248;2024-03-17T12:15:10;13.18;;;6.40;;
63818;SDS011;49970;54.976;73.248;2024-03-17T12:17:42;17.63;;;8.23;;
63818;SDS011;49970;54.976;73.248;2024-03-17T12:20:18;13.75;;;8.48;;
63818;SDS011;49970;54.976;73.248;2024-03-17T12:23:09;23.48;;;7.97;;
63818;SDS011;49970;54.976;73.248;2024-03-17T12:25:46;21.20;;;7.35;;
63818;SDS011;49970;54.976;73.248;2024-03-17T12:28:15;14.35;;;6.70;;
63818;SDS011;49970;54.976;73.248;2024-03-17T12:30:43;14.32;;;6.78;;
63818;SDS011;49970;54.976;73.248;2024-03-17T12:33:10;11.52;;;7.03;;
63818;SDS011;49970;54.976;73.248;2024-03-17T12:35:38;10.57;;;6.85;;
63818;SDS011;49970;54.976;73.248;2024-03-17T12:38:21;12.35;;;7.60;;
63818;SDS011;49970;54.976;73.248;2024-03-17T12:40:48;14.38;;;7.00;;
63818;SDS011;49970;54.976;73.248;2024-03-17T12:43:15;16.38;;;6.13;;
63818;SDS011;49970;54.976;73.248;2024-03-17T12:46:01;13.23;;;6.72;;
63818;SDS011;49970;54.976;73.248;2024-03-17T12:48:28;11.30;;;7.38;;
63818;SDS011;49970;54.976;73.248;2024-03-17T12:50:54;14.98;;;7.55;;
63818;SDS011;49970;54.976;73.248;2024-03-17T12:53:21;15.45;;;7.63;;
63818;SDS011;49970;54.976;73.248;2024-03-17T12:55:54;14.82;;;8.25;;
63818;SDS011;49970;54.976;73.248;2024-03-17T12:58:38;22.23;;;7.25;;
63818;SDS011;49970;54.976;73.248;2024-03-17T13:01:34;13.52;;;6.43;;
63818;SDS011;49970;54.976;73.248;2024-03-17T13:04:07;10.85;;;6.15;;
63818;SDS011;49970;54.976;73.248;2024-03-17T13:06:53;16.67;;;6.65;;
63818;SDS011;49970;54.976;73.248;2024-03-17T13:09:20;15.07;;;5.72;;
63818;SDS011;49970;54.976;73.248;2024-03-17T13:11:46;15.68;;;7.28;;
63818;SDS011;49970;54.976;73.248;2024-03-17T13:14:13;18.63;;;6.43;;
63818;SDS011;49970;54.976;73.248;2024-03-17T13:16:43;14.73;;;7.07;;
63818;SDS011;49970;54.976;73.248;2024-03-17T13:19:29;11.82;;;7.22;;
63818;SDS011;49970;54.976;73.248;2024-03-17T13:21:55;11.75;;;8.32;;
63818;SDS011;49970;54.976;73.248;2024-03-17T13:24:22;17.70;;;9.27;;
63818;SDS011;49970;54.976;73.248;2024-03-17T13:27:07;16.77;;;7.85;;
63818;SDS011;49970;54.976;73.248;2024-03-17T13:29:34;13.68;;;7.95;;
63818;SDS011;49970;54.976;73.248;2024-03-17T13:32:04;23.48;;;9.48;;
63818;SDS011;49970;54.976;73.248;2024-03-17T13:34:31;21.30;;;9.93;;
63818;SDS011;49970;54.976;73.248;2024-03-17T13:36:57;13.93;;;8.00;;
63818;SDS011;49970;54.976;73.248;2024-03-17T13:39:30;26.23;;;8.32;;
63818;SDS011;49970;54.976;73.248;2024-03-17T13:42:00;23.13;;;8.30;;
63818;SDS011;49970;54.976;73.248;2024-03-17T13:44:31;15.38;;;7.75;;
63818;SDS011;49970;54.976;73.248;2024-03-17T13:46:59;18.35;;;7.38;;
63818;SDS011;49970;54.976;73.248;2024-03-17T13:49:27;20.77;;;7.10;;
63818;SDS011;49970;54.976;73.248;2024-03-17T13:51:57;17.35;;;7.57;;
63818;SDS011;49970;54.976;73.248;2024-03-17T13:54:23;11.55;;;6.60;;
63818;SDS011;49970;54.976;73.248;2024-03-17T13:56:49;8.57;;;5.65;;
63818;SDS011;49970;54.976;73.248;2024-03-17T13:59:16;13.18;;;5.80;;
63818;SDS011;49970;54.976;73.248;2024-03-17T14:01:43;16.20;;;5.93;;
63818;SDS011;49970;54.976;73.248;2024-03-17T14:04:13;14.80;;;6.35;;
63818;SDS011;49970;54.976;73.248;2024-03-17T14:11:20;10.63;;;5.97;;
63818;SDS011;49970;54.976;73.248;2024-03-17T14:14:51;13.63;;;6.00;;
63818;SDS011;49970;54.976;73.248;2024-03-17T14:18:23;16.13;;;6.00;;
63818;SDS011;49970;54.976;73.248;2024-03-17T14:21:58;14.07;;;6.40;;
63818;SDS011;49970;54.976;73.248;2024-03-17T14:24:25;13.55;;;6.43;;
63818;SDS011;49970;54.976;73.248;2024-03-17T14:26:52;11.63;;;6.18;;
63818;SDS011;49970;54.976;73.248;2024-03-17T14:29:18;15.15;;;5.75;;
63818;SDS011;49970;54.976;73.248;2024-03-17T14:31:44;12.50;;;6.65;;
63818;SDS011;49970;54.976;73.248;2024-03-17T14:34:11;9.52;;;5.80;;
63818;SDS011;49970;54.976;73.248;2024-03-17T14:36:37;10.82;;;6.38;;
63818;SDS011;49970;54.976;73.248;2024-03-17T14:39:04;14.88;;;6.38;;
63818;SDS011;49970;54.976;73.248;2024-03-17T14:41:30;14.90;;;6.45;;
63818;SDS011;49970;54.976;73.248;2024-03-17T14:43:57;11.13;;;6.38;;
63818;SDS011;49970;54.976;73.248;2024-03-17T14:46:23;11.32;;;6.35;;
63818;SDS011;49970;54.976;73.248;2024-03-17T14:48:50;13.80;;;6.32;;
63818;SDS011;49970;54.976;73.248;2024-03-17T14:51:17;14.13;;;5.43;;
63818;SDS011;49970;54.976;73.248;2024-03-17T14:53:44;10.23;;;5.18;;
63818;SDS011;49970;54.976;73.248;2024-03-17T14:56:19;12.20;;;5.15;;
63818;SDS011;49970;54.976;73.248;2024-03-17T14:58:46;12.10;;;5.70;;
63818;SDS011;49970;54.976;73.248;2024-03-17T15:01:13;15.93;;;6.13;;
63818;SDS011;49970;54.976;73.248;2024-03-17T15:03:39;11.98;;;5.65;;
63818;SDS011;49970;54.976;73.248;2024-03-17T15:06:09;25.15;;;5.47;;
63818;SDS011;49970;54.976;73.248;2024-03-17T15:08:37;8.75;;;6.13;;
63818;SDS011;49970;54.976;73.248;2024-03-17T15:11:04;12.57;;;6.20;;
63818;SDS011;49970;54.976;73.248;2024-03-17T15:13:33;11.57;;;5.93;;
63818;SDS011;49970;54.976;73.248;2024-03-17T15:16:01;12.07;;;5.93;;
63818;SDS011;49970;54.976;73.248;2024-03-17T15:18:30;13.40;;;5.95;;
63818;SDS011;49970;54.976;73.248;2024-03-17T15:20:57;8.70;;;6.25;;
63818;SDS011;49970;54.976;73.248;2024-03-17T15:23:27;10.57;;;6.20;;